createdAt,value
2019-05-19T00:02:23.065Z,99.90
2019-05-19T00:05:23.897Z,99.90
2019-05-19T00:08:24.665Z,99.90
2019-05-19T00:11:25.197Z,99.90
2019-05-19T00:14:25.985Z,99.90
2019-05-19T00:17:26.598Z,99.90
2019-05-19T00:20:27.158Z,99.90
2019-05-19T00:23:27.991Z,99.90
2019-05-19T00:26:28.805Z,99.90
2019-05-19T00:29:29.369Z,99.90
2019-05-19T00:32:30.114Z,99.90
2019-05-19T00:35:30.705Z,99.90
2019-05-19T00:38:31.406Z,99.90
2019-05-19T00:41:32.201Z,99.90
2019-05-19T00:44:32.804Z,99.90
2019-05-19T00:47:33.917Z,99.90
2019-05-19T00:50:34.654Z,99.90
2019-05-19T00:53:35.585Z,99.90
2019-05-19T00:56:36.101Z,99.90
2019-05-19T00:59:36.540Z,99.90
2019-05-19T01:02:37.142Z,99.90
2019-05-19T01:05:38.060Z,99.90
2019-05-19T01:08:38.762Z,99.90
2019-05-19T01:11:39.494Z,99.90
2019-05-19T01:14:40.264Z,99.90
2019-05-19T01:17:40.965Z,99.90
2019-05-19T01:20:41.833Z,99.90
2019-05-19T01:23:42.559Z,99.90
2019-05-19T01:26:43.048Z,99.90
2019-05-19T01:29:43.850Z,99.90
2019-05-19T01:32:44.825Z,99.90
2019-05-19T01:35:45.345Z,99.90
2019-05-19T01:38:46.044Z,99.90
2019-05-19T01:41:46.626Z,99.90
2019-05-19T01:44:46.957Z,99.90
2019-05-19T01:47:47.620Z,99.90
2019-05-19T01:50:48.090Z,99.90
2019-05-19T01:53:48.643Z,99.90
2019-05-19T01:56:49.296Z,99.90
2019-05-19T01:59:49.834Z,99.90
2019-05-19T02:02:50.543Z,99.90
2019-05-19T02:05:50.989Z,99.90
2019-05-19T02:08:51.611Z,99.90
2019-05-19T02:11:52.081Z,99.90
2019-05-19T02:14:52.782Z,99.90
2019-05-19T02:17:53.246Z,99.90
2019-05-19T02:20:53.824Z,99.90
2019-05-19T02:23:54.778Z,99.90
2019-05-19T02:26:55.825Z,99.90
2019-05-19T02:29:56.638Z,99.90
2019-05-19T02:32:57.347Z,99.90
2019-05-19T02:35:58.043Z,99.90
2019-05-19T02:38:58.620Z,99.90
2019-05-19T02:41:59.366Z,99.90
2019-05-19T02:45:00.542Z,99.90
2019-05-19T02:48:01.146Z,99.90
2019-05-19T02:51:01.778Z,99.90
2019-05-19T02:54:02.516Z,99.90
2019-05-19T02:57:03.209Z,99.90
2019-05-19T03:00:04.805Z,99.90
2019-05-19T03:03:05.929Z,99.90
2019-05-19T03:06:06.637Z,99.90
2019-05-19T03:09:07.571Z,99.90
2019-05-19T03:12:08.340Z,99.90
2019-05-19T03:15:09.313Z,99.90
2019-05-19T03:18:10.043Z,99.90
2019-05-19T03:21:11.968Z,99.90
2019-05-19T03:24:13.425Z,99.90
2019-05-19T03:27:14.283Z,99.90
2019-05-19T03:30:34.358Z,99.90
2019-05-19T03:33:36.589Z,99.90
2019-05-19T03:36:37.758Z,99.90
2019-05-19T03:39:38.521Z,99.90
2019-05-19T03:42:39.208Z,99.90
2019-05-19T03:45:40.077Z,99.90
2019-05-19T03:48:40.897Z,99.90
2019-05-19T03:51:41.505Z,99.90
2019-05-19T03:54:42.178Z,99.90
2019-05-19T03:57:42.782Z,99.90
2019-05-19T04:00:43.676Z,99.90
2019-05-19T04:03:44.133Z,99.90
2019-05-19T04:06:45.358Z,99.90
2019-05-19T04:09:46.101Z,99.90
2019-05-19T04:12:46.840Z,99.90
2019-05-19T04:15:47.789Z,99.90
2019-05-19T04:18:48.349Z,99.90
2019-05-19T04:21:49.826Z,99.90
2019-05-19T04:24:50.919Z,99.90
2019-05-19T04:27:51.465Z,99.90
2019-05-19T04:30:52.198Z,99.90
2019-05-19T04:33:53.041Z,99.90
2019-05-19T04:36:53.786Z,99.90
2019-05-19T04:39:54.377Z,99.90
2019-05-19T04:42:55.226Z,99.90
2019-05-19T04:45:44.093Z,99.90
2019-05-19T04:48:52.106Z,99.90
2019-05-19T04:52:06.789Z,99.90
2019-05-19T04:55:09.943Z,99.90
2019-05-19T04:58:17.961Z,99.90
2019-05-19T05:01:25.990Z,99.90
2019-05-19T05:04:34.003Z,99.90
2019-05-19T05:07:42.029Z,99.90
2019-05-19T05:10:50.042Z,99.90
2019-05-19T05:13:58.073Z,99.90
2019-05-19T05:17:06.110Z,99.90
2019-05-19T05:20:14.202Z,99.90
2019-05-19T05:23:22.238Z,99.90
2019-05-19T05:26:30.270Z,99.90
2019-05-19T05:29:38.281Z,99.90
2019-05-19T05:32:46.318Z,99.90
2019-05-19T05:35:54.333Z,99.90
2019-05-19T05:39:02.369Z,99.90
2019-05-19T05:42:10.401Z,99.90
2019-05-19T05:45:11.221Z,99.90
2019-05-19T05:48:12.166Z,99.90
2019-05-19T05:51:12.990Z,99.90
2019-05-19T05:54:13.985Z,99.90
2019-05-19T05:57:14.802Z,99.90
2019-05-19T06:00:16.089Z,99.90
2019-05-19T06:03:17.461Z,99.90
2019-05-19T06:06:18.304Z,99.90
2019-05-19T06:09:19.217Z,99.90
2019-05-19T06:12:20.182Z,99.90
2019-05-19T06:15:20.754Z,99.90
2019-05-19T06:18:22.854Z,99.90
2019-05-19T06:21:23.877Z,99.90
2019-05-19T06:24:24.745Z,99.90
2019-05-19T06:27:25.677Z,99.90
2019-05-19T06:30:26.629Z,99.90
2019-05-19T06:33:27.314Z,99.90
2019-05-19T06:36:27.922Z,99.90
2019-05-19T06:39:28.659Z,99.90
2019-05-19T06:42:29.311Z,99.90
2019-05-19T06:45:30.134Z,99.90
2019-05-19T06:48:31.399Z,99.90
2019-05-19T06:51:31.882Z,99.90
2019-05-19T06:54:32.546Z,99.90
2019-05-19T06:57:33.077Z,99.90
2019-05-19T07:00:33.990Z,99.90
2019-05-19T07:03:34.442Z,99.90
2019-05-19T07:06:34.973Z,99.90
2019-05-19T07:09:35.553Z,99.90
2019-05-19T07:12:34.688Z,99.90
2019-05-19T07:15:42.722Z,99.90
2019-05-19T07:18:50.821Z,99.90
2019-05-19T07:22:00.453Z,99.90
2019-05-19T07:25:08.694Z,99.90
2019-05-19T07:28:16.705Z,99.90
2019-05-19T07:31:24.732Z,99.90
2019-05-19T07:34:32.795Z,99.90
2019-05-19T07:37:40.870Z,99.90
2019-05-19T07:40:48.901Z,99.90
2019-05-19T07:43:49.879Z,99.90
2019-05-19T07:46:50.913Z,99.90
2019-05-19T07:49:51.853Z,99.90
2019-05-19T07:52:52.633Z,99.90
2019-05-19T07:55:53.441Z,99.90
2019-05-19T07:58:54.384Z,99.90
2019-05-19T08:01:55.262Z,99.90
2019-05-19T08:04:55.991Z,99.90
2019-05-19T08:07:56.492Z,99.90
2019-05-19T08:10:57.105Z,99.90
2019-05-19T08:13:57.973Z,99.90
2019-05-19T08:16:58.960Z,99.90
2019-05-19T08:19:59.829Z,99.90
2019-05-19T08:23:00.731Z,99.90
2019-05-19T08:26:01.578Z,99.90
2019-05-19T08:29:02.249Z,99.90
2019-05-19T08:32:02.926Z,99.90
2019-05-19T08:34:51.700Z,99.90
2019-05-19T08:37:59.730Z,99.90
2019-05-19T08:41:07.759Z,99.90
2019-05-19T08:44:09.008Z,99.90
2019-05-19T08:47:09.514Z,99.90
2019-05-19T08:50:10.060Z,99.90
2019-05-19T08:53:10.607Z,99.90
2019-05-19T08:56:11.400Z,99.90
2019-05-19T08:59:12.014Z,99.90
2019-05-19T09:02:12.481Z,99.90
2019-05-19T09:05:13.136Z,99.90
2019-05-19T09:08:14.177Z,99.90
2019-05-19T09:11:15.074Z,99.90
2019-05-19T09:14:15.540Z,99.90
2019-05-19T09:17:16.221Z,99.90
2019-05-19T09:20:17.132Z,99.90
2019-05-19T09:23:17.665Z,99.90
2019-05-19T09:26:18.457Z,99.90
2019-05-19T09:29:19.237Z,99.90
2019-05-19T09:32:19.715Z,99.90
2019-05-19T09:35:20.402Z,99.90
2019-05-19T09:38:21.026Z,99.90
2019-05-19T09:41:09.810Z,99.90
2019-05-19T09:44:10.552Z,99.90
2019-05-19T09:47:11.105Z,99.90
2019-05-19T09:50:12.114Z,99.90
2019-05-19T09:53:12.769Z,99.90
2019-05-19T09:56:13.627Z,99.90
2019-05-19T09:59:14.465Z,99.90
2019-05-19T10:02:03.264Z,99.90
2019-05-19T10:05:11.366Z,99.90
2019-05-19T10:08:19.907Z,99.90
2019-05-19T10:11:47.217Z,99.90
2019-05-19T10:14:55.341Z,99.90
2019-05-19T10:18:03.361Z,99.90
2019-05-19T10:21:11.385Z,99.90
2019-05-19T10:24:19.506Z,99.90
2019-05-19T10:27:27.585Z,99.90
2019-05-19T10:30:35.617Z,99.90
2019-05-19T10:33:43.651Z,99.90
2019-05-19T10:36:51.670Z,99.90
2019-05-19T10:39:59.702Z,99.90
2019-05-19T10:43:07.718Z,99.90
2019-05-19T10:46:08.081Z,99.90
2019-05-19T10:49:09.044Z,99.90
2019-05-19T10:52:09.846Z,99.90
2019-05-19T10:55:10.693Z,99.90
2019-05-19T10:58:11.502Z,99.90
2019-05-19T11:01:12.474Z,99.90
2019-05-19T11:04:13.345Z,99.90
2019-05-19T11:07:14.006Z,99.10
2019-05-19T11:10:15.025Z,98.50
2019-05-19T11:13:15.885Z,99.10
2019-05-19T11:16:16.800Z,96.70
2019-05-19T11:19:17.377Z,97.00
2019-05-19T11:22:06.161Z,96.40
2019-05-19T11:25:14.313Z,94.90
2019-05-19T11:28:22.354Z,93.10
2019-05-19T11:31:30.381Z,93.20
2019-05-19T11:34:38.405Z,92.70
2019-05-19T11:37:46.421Z,90.80
2019-05-19T11:40:54.452Z,90.90
2019-05-19T11:43:55.273Z,90.10
2019-05-19T11:46:56.253Z,88.40
2019-05-19T11:49:57.222Z,89.10
2019-05-19T11:52:58.153Z,89.10
2019-05-19T11:56:06.630Z,90.50
2019-05-19T11:59:01.677Z,91.70
2019-05-19T12:02:02.432Z,88.30
2019-05-19T12:05:03.309Z,87.80
2019-05-19T12:08:03.818Z,86.20
2019-05-19T12:11:04.262Z,86.30
2019-05-19T12:14:04.727Z,86.30
2019-05-19T12:17:05.451Z,86.70
2019-05-19T12:20:06.438Z,87.20
2019-05-19T12:23:07.376Z,86.10
2019-05-19T12:26:22.197Z,84.50
2019-05-19T12:29:10.665Z,84.70
2019-05-19T12:32:11.306Z,81.00
2019-05-19T12:35:12.097Z,84.00
2019-05-19T12:38:12.960Z,81.60
2019-05-19T12:41:13.876Z,82.60
2019-05-19T12:44:14.608Z,82.50
2019-05-19T12:47:15.242Z,84.30
2019-05-19T12:50:15.598Z,82.00
2019-05-19T12:53:16.341Z,77.10
2019-05-19T12:56:17.026Z,79.30
2019-05-19T12:59:18.091Z,77.50
2019-05-19T13:02:18.821Z,73.40
2019-05-19T13:05:19.319Z,73.40
2019-05-19T13:08:20.055Z,73.90
2019-05-19T13:11:20.797Z,75.00
2019-05-19T13:14:21.689Z,74.90
2019-05-19T13:17:22.364Z,73.20
2019-05-19T13:20:23.078Z,72.10
2019-05-19T13:23:23.793Z,70.90
2019-05-19T13:26:24.317Z,75.00
2019-05-19T13:29:25.249Z,73.00
2019-05-19T13:32:26.012Z,71.90
2019-05-19T13:35:26.865Z,71.60
2019-05-19T13:38:27.550Z,69.10
2019-05-19T13:41:28.189Z,66.00
2019-05-19T13:44:28.914Z,66.30
2019-05-19T13:47:29.517Z,65.30
2019-05-19T13:50:30.333Z,60.90
2019-05-19T13:53:31.213Z,59.90
2019-05-19T13:56:32.069Z,61.40
2019-05-19T13:59:32.905Z,64.60
2019-05-19T14:02:33.582Z,59.50
2019-05-19T14:05:34.517Z,61.50
2019-05-19T14:08:35.126Z,62.20
2019-05-19T14:11:35.894Z,63.10
2019-05-19T14:14:36.564Z,63.00
2019-05-19T14:17:37.366Z,64.10
2019-05-19T14:20:38.321Z,63.60
2019-05-19T14:23:38.789Z,65.60
2019-05-19T14:26:39.830Z,62.30
2019-05-19T14:29:40.610Z,60.90
2019-05-19T14:32:41.380Z,62.00
2019-05-19T14:35:42.341Z,62.30
2019-05-19T14:38:59.762Z,59.80
2019-05-19T14:42:03.838Z,60.90
2019-05-19T14:45:04.244Z,59.80
2019-05-19T14:48:04.919Z,58.60
2019-05-19T14:51:05.718Z,57.80
2019-05-19T14:54:06.514Z,58.50
2019-05-19T14:57:07.225Z,57.60
2019-05-19T15:00:08.533Z,57.40
2019-05-19T15:03:09.221Z,58.20
2019-05-19T15:06:09.824Z,58.20
2019-05-19T15:09:10.499Z,57.40
2019-05-19T15:12:11.285Z,56.40
2019-05-19T15:15:11.955Z,56.80
2019-05-19T15:18:12.760Z,56.80
2019-05-19T15:21:13.744Z,57.80
2019-05-19T15:24:14.440Z,55.80
2019-05-19T15:27:15.242Z,56.60
2019-05-19T15:30:15.998Z,57.00
2019-05-19T15:33:16.737Z,56.20
2019-05-19T15:36:17.713Z,56.00
2019-05-19T15:39:18.389Z,56.60
2019-05-19T15:42:18.922Z,56.70
2019-05-19T15:45:19.625Z,56.00
2019-05-19T15:48:20.245Z,55.70
2019-05-19T15:51:28.581Z,55.60
2019-05-19T15:54:24.023Z,55.40
2019-05-19T15:57:24.702Z,55.00
2019-05-19T16:00:25.529Z,55.70
2019-05-19T16:03:26.277Z,55.10
2019-05-19T16:06:27.133Z,54.30
2019-05-19T16:09:27.786Z,54.20
2019-05-19T16:12:28.509Z,54.80
2019-05-19T16:15:29.407Z,54.30
2019-05-19T16:18:30.116Z,54.60
2019-05-19T16:21:31.044Z,54.70
2019-05-19T16:24:31.626Z,55.30
2019-05-19T16:27:32.341Z,56.10
2019-05-19T16:30:32.889Z,54.90
2019-05-19T16:33:33.693Z,55.30
2019-05-19T16:36:34.560Z,55.90
2019-05-19T16:39:35.408Z,57.40
2019-05-19T16:42:36.041Z,56.30
2019-05-19T16:45:36.799Z,56.10
2019-05-19T16:48:37.403Z,55.60
2019-05-19T16:51:38.269Z,55.30
2019-05-19T16:54:42.693Z,56.50
2019-05-19T16:57:43.781Z,55.30
2019-05-19T17:00:44.450Z,55.70
2019-05-19T17:03:45.141Z,55.10
2019-05-19T17:06:46.011Z,55.60
2019-05-19T17:09:46.828Z,54.50
2019-05-19T17:12:47.877Z,54.90
2019-05-19T17:15:48.586Z,56.40
2019-05-19T17:18:49.358Z,56.10
2019-05-19T17:21:50.138Z,56.60
2019-05-19T17:24:51.169Z,56.00
2019-05-19T17:27:52.089Z,56.30
2019-05-19T17:30:52.917Z,57.00
2019-05-19T17:33:53.637Z,57.10
2019-05-19T17:36:54.291Z,57.40
2019-05-19T17:39:55.133Z,57.80
2019-05-19T17:42:55.963Z,58.70
2019-05-19T17:45:56.827Z,58.60
2019-05-19T17:48:57.605Z,59.20
2019-05-19T17:51:58.292Z,59.00
2019-05-19T17:54:58.950Z,59.50
2019-05-19T17:57:59.682Z,60.70
2019-05-19T18:01:00.449Z,60.30
2019-05-19T18:04:01.063Z,61.20
2019-05-19T18:07:01.821Z,61.90
2019-05-19T18:09:51.368Z,62.10
2019-05-19T18:12:59.377Z,63.40
2019-05-19T18:16:07.419Z,63.30
2019-05-19T18:19:15.576Z,63.90
2019-05-19T18:22:23.623Z,64.20
2019-05-19T18:25:31.774Z,67.20
2019-05-19T18:28:39.866Z,70.20
2019-05-19T18:31:47.959Z,71.30
2019-05-19T18:34:56.048Z,72.00
2019-05-19T18:38:04.147Z,73.70
2019-05-19T18:41:12.172Z,73.80
2019-05-19T18:44:13.005Z,74.80
2019-05-19T18:47:13.832Z,76.00
2019-05-19T18:50:14.644Z,76.20
2019-05-19T18:53:15.381Z,77.50
2019-05-19T18:56:16.147Z,78.40
2019-05-19T18:59:16.993Z,79.60
2019-05-19T19:02:17.865Z,80.50
2019-05-19T19:05:18.514Z,81.60
2019-05-19T19:08:19.160Z,83.30
2019-05-19T19:11:20.026Z,84.30
2019-05-19T19:14:20.881Z,85.40
2019-05-19T19:17:21.673Z,87.40
2019-05-19T19:20:22.453Z,88.60
2019-05-19T19:23:23.257Z,90.30
2019-05-19T19:26:23.793Z,91.00
2019-05-19T19:29:24.613Z,92.00
2019-05-19T19:32:25.377Z,92.90
2019-05-19T19:35:26.105Z,93.70
2019-05-19T19:38:26.770Z,96.20
2019-05-19T19:41:27.385Z,99.90
2019-05-19T19:44:28.104Z,99.90
2019-05-19T19:47:29.145Z,99.90
2019-05-19T19:50:29.773Z,99.90
2019-05-19T19:53:30.430Z,99.90
2019-05-19T19:56:31.248Z,99.90
2019-05-19T19:59:31.966Z,99.90
2019-05-19T20:02:32.810Z,99.90
2019-05-19T20:05:33.529Z,99.90
2019-05-19T20:08:34.367Z,99.90
2019-05-19T20:11:35.329Z,99.90
2019-05-19T20:14:38.567Z,99.90
2019-05-19T20:17:38.945Z,99.90
2019-05-19T20:20:39.569Z,99.90
2019-05-19T20:23:40.482Z,99.90
2019-05-19T20:26:41.305Z,99.90
2019-05-19T20:29:42.230Z,99.90
2019-05-19T20:32:43.099Z,99.90
2019-05-19T20:35:43.781Z,99.90
2019-05-19T20:38:32.593Z,99.90
2019-05-19T20:41:40.614Z,99.90
2019-05-19T20:44:41.974Z,99.90
2019-05-19T20:47:42.944Z,99.90
2019-05-19T20:50:42.054Z,99.90
2019-05-19T20:53:53.163Z,99.90
2019-05-19T20:56:59.800Z,99.90
2019-05-19T21:00:08.113Z,99.90
2019-05-19T21:03:16.156Z,99.90
2019-05-19T21:06:24.253Z,99.90
2019-05-19T21:12:45.670Z,99.90
2019-05-19T21:15:34.517Z,99.90
2019-05-19T21:18:42.581Z,99.90
2019-05-19T21:21:50.599Z,99.90
2019-05-19T21:24:58.674Z,99.90
2019-05-19T21:28:06.682Z,99.90
2019-05-19T21:31:14.721Z,99.90
2019-05-19T21:34:22.750Z,99.90
2019-05-19T21:37:30.809Z,99.90
2019-05-19T21:40:40.528Z,99.90
2019-05-19T21:43:48.601Z,99.90
2019-05-19T21:46:56.636Z,99.90
2019-05-19T21:50:05.414Z,99.90
2019-05-19T21:53:13.484Z,99.90
2019-05-19T21:56:21.513Z,99.90
2019-05-19T21:59:29.528Z,99.90
2019-05-19T22:02:37.569Z,99.90
2019-05-19T22:05:53.405Z,99.90
2019-05-19T22:08:55.317Z,99.90
2019-05-19T22:15:18.236Z,99.90
2019-05-19T22:18:26.245Z,99.90
2019-05-19T22:21:34.273Z,99.90
2019-05-19T22:24:42.292Z,99.90
2019-05-19T22:27:50.321Z,99.90
2019-05-19T22:30:58.349Z,99.90
2019-05-19T22:34:06.369Z,99.90
2019-05-19T22:37:14.401Z,99.90
2019-05-19T22:40:22.412Z,99.90
2019-05-19T22:43:30.445Z,99.90
2019-05-19T22:46:30.982Z,99.90
2019-05-19T22:49:31.758Z,99.90
2019-05-19T22:52:32.587Z,99.90
2019-05-19T22:55:33.212Z,99.90
2019-05-19T22:58:33.954Z,99.90
2019-05-19T23:01:34.814Z,99.90
2019-05-19T23:04:35.669Z,99.90
2019-05-19T23:07:36.573Z,99.90
2019-05-19T23:10:37.513Z,99.90
2019-05-19T23:13:38.354Z,99.90
2019-05-19T23:16:39.094Z,99.90
2019-05-19T23:19:39.938Z,99.90
2019-05-19T23:22:40.678Z,99.90
2019-05-19T23:25:41.241Z,99.90
2019-05-19T23:28:42.121Z,99.90
2019-05-19T23:31:42.784Z,99.90
2019-05-19T23:34:43.648Z,99.90
2019-05-19T23:37:32.464Z,99.90
2019-05-19T23:40:40.478Z,99.90
2019-05-19T23:43:40.923Z,99.90
2019-05-19T23:46:41.397Z,99.90
2019-05-19T23:49:30.195Z,99.90
2019-05-19T23:52:38.226Z,99.90
2019-05-19T23:55:46.285Z,99.90
2019-05-19T23:58:54.349Z,99.90
